Au Sable Chasm, New York
Current Conditions -  °F | °C
As of 8:16 AM on Sunday 21 Dec 2014 (Local Time) from KPBG Reporting Station
Haze Haze  
Wind Chill: 18°   Ceiling: 400
Heat Index: 18°   Visibility: 3mi
Dew Point: 16°   Wind: 0mph
Humidity: 92%   Direction: NA
Pressure: 30.36"   Gusts: NA
Location:  44.5125°N, 73.5235°W
Report Text: KPBG 211316Z AUTO 00000KT 3SM BR OVC004 M08/M09 A3036 RMK AO2 T10781089
Loading
Personal Weather Stations






























Interactive Weather Map New forecast layout! Learn more

10-Day Weather Forecast

Advertisements
Track Severe Weather on mobile